»·PEaware :: UAL1406 KSFO-KLAS

UAL1406 :: KSFO-KLAS

FLIGHT INFORMATION

Flight Status: Arrived
Operator:
United Airlines
More flights by this operator :: More flights under this callsign
Pilot: Henderson P. (1210)
Aircraft: AIRBUS A319
(A319)
More flights by this aircraft type
Origin: KSFO San Francisco Intl
United States
Destination: KLAS McCarran Intl
United States
More flights between these airports :: More routes between these airports
Route: SSTIK4 NTELL Q162 ESSAA BTY SUNST4
File this flight plan on PilotEdge
Remarks:
Altitude:
(Current/Filed)
33,000ft
Speed:
(Current/Filed)
456kts
Departed: 07-Dec-18 09:19 AM
Arrived: 07-Dec-18 10:29 AM
Distance/Time
Traveled:
359nm/1:10
Distance/Time
To Go:
Arrived

Flight Plot

Page will automatically refresh every two minutes.

Flight plan parsing failed; only flown route is shown


Map Options




Map Legend


Flown Route
Filed Route
Departure Airport
Arrival Airport
Navaid (VOR, NDB)
Fix

Horizontal Profiles

Position Reports

Time Latitude Longitude Heading Altitude Ground
Speed
07-Dec-18 08:48 37.619727 -122.388260 27 27ft 0kts
07-Dec-18 08:49 37.619727 -122.388260 27 27ft 0kts
07-Dec-18 08:50 37.619727 -122.388260 27 27ft 0kts
07-Dec-18 08:51 37.619727 -122.388260 27 27ft 0kts
07-Dec-18 08:52 37.619727 -122.388260 27 27ft 0kts
07-Dec-18 08:53 37.619727 -122.388260 27 27ft 0kts
07-Dec-18 08:54 37.619727 -122.388260 27 27ft 0kts
07-Dec-18 08:55 37.619727 -122.388260 27 27ft 0kts
07-Dec-18 08:56 37.619727 -122.388260 27 27ft 0kts
07-Dec-18 08:57 37.619727 -122.388260 27 27ft 0kts
07-Dec-18 08:58 37.619727 -122.388260 27 27ft 0kts
07-Dec-18 08:59 37.619496 -122.388409 27 27ft 2kts
07-Dec-18 09:00 37.618960 -122.388751 25 27ft 0kts
07-Dec-18 09:01 37.618961 -122.388750 25 27ft 0kts
07-Dec-18 09:02 37.618962 -122.388750 25 27ft 0kts
07-Dec-18 09:03 37.619116 -122.389059 295 27ft 6kts
07-Dec-18 09:04 37.620263 -122.391823 298 27ft 9kts
07-Dec-18 09:05 37.622633 -122.389185 104 27ft 15kts
07-Dec-18 09:06 37.620551 -122.384140 117 27ft 17kts
07-Dec-18 09:07 37.617570 -122.379442 176 27ft 12kts
07-Dec-18 09:08 37.613178 -122.381928 208 27ft 20kts
07-Dec-18 09:09 37.609097 -122.384736 179 27ft 12kts
07-Dec-18 09:10 37.608449 -122.383721 117 27ft 0kts
07-Dec-18 09:11 37.608448 -122.383719 117 27ft 0kts
07-Dec-18 09:12 37.608447 -122.383718 117 27ft 0kts
07-Dec-18 09:13 37.608447 -122.383716 117 27ft 0kts
07-Dec-18 09:14 37.608446 -122.383715 117 27ft 0kts
07-Dec-18 09:15 37.608446 -122.383713 117 27ft 0kts
07-Dec-18 09:16 37.608445 -122.383712 117 27ft 0kts
07-Dec-18 09:17 37.608272 -122.383291 117 27ft 11kts
07-Dec-18 09:18 37.626537 -122.370536 26 378ft 153kts
07-Dec-18 09:19 37.667752 -122.362749 4 2811ft 150kts
07-Dec-18 09:20 37.709597 -122.382562 289 4318ft 210kts
07-Dec-18 09:21 37.669124 -122.432588 189 6662ft 269kts
07-Dec-18 09:22 37.592700 -122.449881 191 9756ft 288kts
07-Dec-18 09:23 37.504152 -122.460225 165 10020ft 374kts
07-Dec-18 09:24 37.428151 -122.368454 123 11772ft 399kts
07-Dec-18 09:25 37.390827 -122.235951 101 14080ft 417kts
07-Dec-18 09:26 37.362419 -122.090893 102 16244ft 436kts
07-Dec-18 09:27 37.332220 -121.940506 102 18240ft 452kts
07-Dec-18 09:28 37.300903 -121.785235 101 20185ft 464kts
07-Dec-18 09:29 37.268606 -121.626165 101 21937ft 475kts
07-Dec-18 09:30 37.235425 -121.464244 101 23477ft 484kts
07-Dec-18 09:31 37.201292 -121.298954 101 24799ft 494kts
07-Dec-18 09:32 37.166117 -121.129887 101 25845ft 505kts
07-Dec-18 09:33 37.130272 -120.959130 101 27091ft 507kts
07-Dec-18 09:34 37.094112 -120.787745 100 28314ft 510kts
07-Dec-18 09:35 37.057567 -120.616163 100 29633ft 510kts
07-Dec-18 09:36 37.020765 -120.444471 100 30829ft 512kts
07-Dec-18 09:37 36.983245 -120.271166 100 31991ft 516kts
07-Dec-18 09:38 36.945436 -120.097528 100 33098ft 519kts
07-Dec-18 09:39 36.909587 -119.922809 89 33253ft 510kts
07-Dec-18 09:40 36.941157 -119.761325 57 33272ft 474kts
07-Dec-18 09:41 36.991774 -119.608547 59 33234ft 477kts
07-Dec-18 09:42 37.041552 -119.455221 59 33262ft 474kts
07-Dec-18 09:43 37.090977 -119.301877 59 33283ft 473kts
07-Dec-18 09:44 37.140171 -119.149102 59 33304ft 473kts
07-Dec-18 09:45 37.188952 -118.996415 60 33302ft 471kts
07-Dec-18 09:46 37.237499 -118.843839 60 33306ft 469kts
07-Dec-18 09:47 37.280101 -118.689147 73 33267ft 482kts
07-Dec-18 09:48 37.294567 -118.521223 76 33218ft 483kts
07-Dec-18 09:49 37.310312 -118.353991 76 33213ft 481kts
07-Dec-18 09:50 37.324982 -118.187475 76 33217ft 479kts
07-Dec-18 09:51 37.339724 -118.021011 76 33239ft 479kts
07-Dec-18 09:52 37.347860 -117.853474 89 33317ft 488kts
07-Dec-18 09:53 37.331822 -117.683815 90 33274ft 489kts
07-Dec-18 09:54 37.316925 -117.514322 91 33267ft 488kts
07-Dec-18 09:55 37.300260 -117.345186 97 33215ft 493kts
07-Dec-18 09:56 37.229385 -117.196204 126 33213ft 506kts
07-Dec-18 09:57 37.143619 -117.056977 124 33209ft 502kts
07-Dec-18 09:58 37.053810 -116.924592 143 33206ft 498kts
07-Dec-18 09:59 36.931312 -116.838796 151 33248ft 506kts
07-Dec-18 10:00 36.809431 -116.751734 143 33239ft 505kts
07-Dec-18 10:01 36.714190 -116.624730 128 33002ft 500kts
07-Dec-18 10:02 36.622631 -116.494596 130 30915ft 499kts
07-Dec-18 10:03 36.531562 -116.364923 131 27541ft 493kts
07-Dec-18 10:04 36.441836 -116.238635 133 23718ft 483kts
07-Dec-18 10:05 36.356166 -116.117941 132 20471ft 456kts
07-Dec-18 10:06 36.278318 -116.008927 132 17987ft 368kts
07-Dec-18 10:07 36.217017 -115.923371 132 16274ft 320kts
07-Dec-18 10:08 36.177040 -115.828345 111 15262ft 306kts
07-Dec-18 10:09 36.146316 -115.731453 112 14266ft 308kts
07-Dec-18 10:10 36.114718 -115.633531 112 13269ft 304kts
07-Dec-18 10:11 36.087169 -115.548237 112 12384ft 299kts
07-Dec-18 10:12 36.056558 -115.453959 111 11388ft 294kts
07-Dec-18 10:13 36.029741 -115.363057 97 10988ft 266kts
07-Dec-18 10:14 36.023675 -115.272171 95 9678ft 260kts
07-Dec-18 10:15 36.017331 -115.185876 94 8890ft 242kts
07-Dec-18 10:16 36.011514 -115.100188 94 8479ft 242kts
07-Dec-18 10:17 36.006666 -115.019707 93 8016ft 234kts
07-Dec-18 10:18 36.001879 -114.939698 93 8018ft 233kts
07-Dec-18 10:19 35.997018 -114.858207 93 7998ft 248kts
07-Dec-18 10:20 35.994604 -114.809549 84 7583ft 230kts
07-Dec-18 10:21 36.042704 -114.777725 339 6380ft 217kts
07-Dec-18 10:22 36.071874 -114.840125 287 5215ft 208kts
07-Dec-18 10:23 36.073836 -114.899446 270 5012ft 196kts
07-Dec-18 10:24 36.073799 -114.964856 270 4754ft 167kts
07-Dec-18 10:25 36.073763 -115.017287 270 3924ft 148kts
07-Dec-18 10:26 36.073715 -115.065640 270 3191ft 132kts
07-Dec-18 10:27 36.073657 -115.111124 269 2461ft 130kts
07-Dec-18 10:28 36.074023 -115.144206 293 2195ft 32kts
07-Dec-18 10:29 36.077522 -115.146551 0 2195ft 0kts
07-Dec-18 10:30 36.077537 -115.146551 357 2195ft 1kts
07-Dec-18 10:31 36.078342 -115.143962 94 2195ft 21kts
07-Dec-18 10:32 36.081233 -115.141601 0 2195ft 15kts
07-Dec-18 10:33 36.083284 -115.140301 129 2195ft 2kts
07-Dec-18 10:34 36.083241 -115.140238 130 2195ft 0kts
07-Dec-18 10:35 36.083241 -115.140238 130 2195ft 0kts
07-Dec-18 10:36 36.083241 -115.140238 130 2195ft 0kts
07-Dec-18 10:38 36.083241 -115.140238 130 2195ft 0kts
07-Dec-18 10:39 36.083241 -115.140238 130 2195ft 0kts
07-Dec-18 10:40 36.083241 -115.140238 130 2195ft 0kts
07-Dec-18 10:41 36.083241 -115.140238 130 2195ft 0kts
07-Dec-18 10:42 36.083241 -115.140238 130 2195ft 0kts
07-Dec-18 10:43 36.083241 -115.140238 130 2195ft 0kts
07-Dec-18 10:44 36.083241 -115.140238 130 2195ft 0kts

Navigation Log

Ident Type
Flight plan parsing failed, navigation log unavailable